createdAt,value
2022-10-25T00:00:28.738Z,17.33
2022-10-25T00:03:15.470Z,17.28
2022-10-25T00:05:42.529Z,17.28
2022-10-25T00:08:09.410Z,17.28
2022-10-25T00:10:36.411Z,17.27
2022-10-25T00:13:03.178Z,17.24
2022-10-25T00:15:30.141Z,17.22
2022-10-25T00:17:56.975Z,17.23
2022-10-25T00:20:23.987Z,17.21
2022-10-25T00:22:50.763Z,17.20
2022-10-25T00:25:17.842Z,17.20
2022-10-25T00:27:44.610Z,17.18
2022-10-25T00:30:12.272Z,17.15
2022-10-25T00:32:39.038Z,17.13
2022-10-25T00:35:06.301Z,17.14
2022-10-25T00:37:33.124Z,17.10
2022-10-25T00:40:00.149Z,17.11
2022-10-25T00:42:26.982Z,17.09
2022-10-25T00:44:56.497Z,17.08
2022-10-25T00:47:52.696Z,17.08
2022-10-25T00:50:34.098Z,17.03
2022-10-25T00:53:12.690Z,17.02
2022-10-25T00:55:42.088Z,16.99
2022-10-25T00:58:11.485Z,16.97
2022-10-25T01:00:38.578Z,16.99
2022-10-25T01:03:05.346Z,16.98
2022-10-25T01:05:33.686Z,16.98
2022-10-25T01:08:00.433Z,16.97
2022-10-25T01:10:27.463Z,16.94
2022-10-25T01:12:54.596Z,16.93
2022-10-25T01:15:23.191Z,16.90
2022-10-25T01:17:49.969Z,16.91
2022-10-25T01:20:23.190Z,16.91
2022-10-25T01:23:11.920Z,16.88
2022-10-25T01:25:47.980Z,16.90
2022-10-25T01:28:29.754Z,16.84
2022-10-25T01:30:59.709Z,16.83
2022-10-25T01:33:28.049Z,16.78
2022-10-25T01:36:06.771Z,16.75
2022-10-25T01:38:44.480Z,16.79
2022-10-25T01:41:34.861Z,16.78
2022-10-25T01:44:30.364Z,16.71
2022-10-25T01:47:15.573Z,16.74
2022-10-25T01:49:42.617Z,16.73
2022-10-25T01:52:09.453Z,16.67
2022-10-25T01:54:36.496Z,16.66
2022-10-25T01:57:13.932Z,16.68
2022-10-25T01:59:55.912Z,16.62
2022-10-25T02:02:41.064Z,16.63
2022-10-25T02:05:21.700Z,16.56
2022-10-25T02:08:25.383Z,16.59
2022-10-25T02:11:05.696Z,16.53
2022-10-25T02:13:38.504Z,16.55
2022-10-25T02:16:12.547Z,16.54
2022-10-25T02:18:41.649Z,16.49
2022-10-25T02:21:08.644Z,16.50
2022-10-25T02:23:35.739Z,16.49
2022-10-25T02:26:04.072Z,16.45
2022-10-25T02:28:30.884Z,16.47
2022-10-25T02:30:59.308Z,16.43
2022-10-25T02:33:26.060Z,16.42
2022-10-25T02:36:25.651Z,16.42
2022-10-25T02:38:52.902Z,16.41
2022-10-25T02:41:20.443Z,16.38
2022-10-25T02:43:47.235Z,16.37
2022-10-25T02:46:16.151Z,16.37
2022-10-25T02:48:42.979Z,16.32
2022-10-25T02:51:10.220Z,16.25
2022-10-25T02:53:36.933Z,16.25
2022-10-25T02:56:11.962Z,16.26
2022-10-25T02:58:40.283Z,16.25
2022-10-25T03:01:07.717Z,16.21
2022-10-25T03:03:34.667Z,16.22
2022-10-25T03:06:01.695Z,16.23
2022-10-25T03:11:01.022Z,16.21
2022-10-25T03:13:27.778Z,16.18
2022-10-25T03:15:54.772Z,16.17
2022-10-25T03:18:22.451Z,16.14
2022-10-25T03:20:49.642Z,16.14
2022-10-25T03:23:16.515Z,16.11
2022-10-25T03:25:43.590Z,16.12
2022-10-25T03:28:10.339Z,16.14
2022-10-25T03:30:37.412Z,16.09
2022-10-25T03:33:04.246Z,16.10
2022-10-25T03:35:31.234Z,16.09
2022-10-25T03:37:58.006Z,16.11
2022-10-25T03:40:25.002Z,16.08
2022-10-25T03:42:51.746Z,16.09
2022-10-25T03:45:19.966Z,16.07
2022-10-25T03:47:47.109Z,16.07
2022-10-25T03:50:14.542Z,16.09
2022-10-25T03:52:41.382Z,16.07
2022-10-25T03:55:08.850Z,16.05
2022-10-25T03:57:35.667Z,16.02
2022-10-25T04:00:03.527Z,16.02
2022-10-25T04:02:30.290Z,16.01
2022-10-25T04:04:57.325Z,16.01
2022-10-25T04:07:24.075Z,16.03
2022-10-25T04:09:51.038Z,16.00
2022-10-25T04:12:17.813Z,16.02
2022-10-25T04:14:44.817Z,16.04
2022-10-25T04:17:11.630Z,16.01
2022-10-25T04:19:38.662Z,16.02
2022-10-25T04:22:05.518Z,16.04
2022-10-25T04:24:32.652Z,16.00
2022-10-25T04:26:59.502Z,15.98
2022-10-25T04:29:26.593Z,15.96
2022-10-25T04:31:53.359Z,15.97
2022-10-25T04:34:20.343Z,15.98
2022-10-25T04:36:47.142Z,15.99
2022-10-25T04:39:14.137Z,16.00
2022-10-25T04:41:40.962Z,16.00
2022-10-25T04:44:07.989Z,16.01
2022-10-25T04:46:34.990Z,16.01
2022-10-25T04:49:02.053Z,15.93
2022-10-25T04:51:28.869Z,16.04
2022-10-25T04:53:56.062Z,16.07
2022-10-25T04:56:22.877Z,16.04
2022-10-25T04:58:49.876Z,15.99
2022-10-25T05:01:17.347Z,15.95
2022-10-25T05:03:44.585Z,15.92
2022-10-25T05:06:15.887Z,15.94
2022-10-25T05:08:45.291Z,15.90
2022-10-25T05:11:12.577Z,15.91
2022-10-25T05:13:39.906Z,15.88
2022-10-25T05:16:06.982Z,15.88
2022-10-25T05:18:34.473Z,15.87
2022-10-25T05:21:04.176Z,15.84
2022-10-25T05:23:31.677Z,15.86
2022-10-25T05:26:05.957Z,15.83
2022-10-25T05:28:33.614Z,15.83
2022-10-25T05:31:04.868Z,15.80
2022-10-25T05:33:32.196Z,15.76
2022-10-25T05:36:00.424Z,15.76
2022-10-25T05:38:28.794Z,15.75
2022-10-25T05:40:56.764Z,15.77
2022-10-25T05:43:23.997Z,15.74
2022-10-25T05:45:50.837Z,15.73
2022-10-25T05:48:18.829Z,15.72
2022-10-25T05:50:46.223Z,15.74
2022-10-25T05:53:13.200Z,15.71
2022-10-25T05:55:40.024Z,15.71
2022-10-25T05:58:06.976Z,15.70
2022-10-25T06:00:33.880Z,15.69
2022-10-25T06:03:01.924Z,15.71
2022-10-25T06:05:28.748Z,15.72
2022-10-25T06:07:55.837Z,15.68
2022-10-25T06:10:22.617Z,15.66
2022-10-25T06:12:49.789Z,15.68
2022-10-25T06:15:16.744Z,15.71
2022-10-25T06:17:43.721Z,15.68
2022-10-25T06:20:10.997Z,15.70
2022-10-25T06:22:38.079Z,15.71
2022-10-25T06:25:05.251Z,15.72
2022-10-25T06:27:32.374Z,15.71
2022-10-25T06:29:59.184Z,15.67
2022-10-25T06:32:26.201Z,15.68
2022-10-25T06:34:52.956Z,15.70
2022-10-25T06:37:19.956Z,15.71
2022-10-25T06:39:46.716Z,15.66
2022-10-25T06:42:13.680Z,15.70
2022-10-25T06:44:40.468Z,15.68
2022-10-25T06:47:22.904Z,15.71
2022-10-25T06:49:49.711Z,15.71
2022-10-25T06:52:16.729Z,15.72
2022-10-25T06:54:43.554Z,15.74
2022-10-25T06:57:10.522Z,15.73
2022-10-25T06:59:37.324Z,15.75
2022-10-25T07:02:04.663Z,15.73
2022-10-25T07:04:32.552Z,15.75
2022-10-25T07:06:59.552Z,15.76
2022-10-25T07:09:26.429Z,15.75
2022-10-25T07:11:53.713Z,15.77
2022-10-25T07:14:20.828Z,15.77
2022-10-25T07:16:47.884Z,15.80
2022-10-25T07:19:14.636Z,15.80
2022-10-25T07:21:42.524Z,15.79
2022-10-25T07:24:11.189Z,15.81
2022-10-25T07:26:38.326Z,15.82
2022-10-25T07:29:05.165Z,15.85
2022-10-25T07:31:33.915Z,15.85
2022-10-25T07:34:01.357Z,15.86
2022-10-25T07:36:28.492Z,15.87
2022-10-25T07:38:57.011Z,15.85
2022-10-25T07:41:24.711Z,15.86
2022-10-25T07:43:51.851Z,15.86
2022-10-25T07:46:18.899Z,15.89
2022-10-25T07:48:45.730Z,15.88
2022-10-25T07:51:14.376Z,15.90
2022-10-25T07:53:41.341Z,15.90
2022-10-25T07:56:12.645Z,15.92
2022-10-25T07:58:39.479Z,15.94
2022-10-25T08:01:07.898Z,15.93
2022-10-25T08:03:34.703Z,15.98
2022-10-25T08:06:01.910Z,15.99
2022-10-25T08:08:28.961Z,16.00
2022-10-25T08:10:56.131Z,16.03
2022-10-25T08:13:24.029Z,16.05
2022-10-25T08:15:52.027Z,16.05
2022-10-25T08:18:18.967Z,16.08
2022-10-25T08:21:03.024Z,16.07
2022-10-25T08:23:31.646Z,16.07
2022-10-25T08:25:59.664Z,16.09
2022-10-25T08:28:26.485Z,16.12
2022-10-25T08:30:55.305Z,16.18
2022-10-25T08:33:22.451Z,16.20
2022-10-25T08:35:49.459Z,16.23
2022-10-25T08:38:16.296Z,16.24
2022-10-25T08:40:43.302Z,16.24
2022-10-25T08:43:22.820Z,16.26
2022-10-25T08:46:10.171Z,16.30
2022-10-25T08:48:38.905Z,16.31
2022-10-25T08:51:12.347Z,16.21
2022-10-25T08:53:41.599Z,16.26
2022-10-25T08:56:16.752Z,16.27
2022-10-25T08:58:54.776Z,16.24
2022-10-25T09:01:40.918Z,16.32
2022-10-25T09:04:07.886Z,16.35
2022-10-25T09:06:50.775Z,16.39
2022-10-25T09:09:25.311Z,16.39
2022-10-25T09:12:13.276Z,16.49
2022-10-25T09:14:59.975Z,16.55
2022-10-25T09:17:50.911Z,16.62
2022-10-25T09:20:21.690Z,16.68
2022-10-25T09:22:51.773Z,16.70
2022-10-25T09:25:43.302Z,16.75
2022-10-25T09:28:36.201Z,16.78
2022-10-25T09:31:02.969Z,16.87
2022-10-25T09:33:30.648Z,16.91
2022-10-25T09:35:57.947Z,16.98
2022-10-25T09:38:34.028Z,17.02
2022-10-25T09:41:06.105Z,17.04
2022-10-25T09:43:39.354Z,17.09
2022-10-25T09:46:08.681Z,17.15
2022-10-25T09:49:02.460Z,17.19
2022-10-25T09:51:36.096Z,17.25
2022-10-25T09:54:09.460Z,17.30
2022-10-25T09:56:36.304Z,17.36
2022-10-25T09:59:04.486Z,17.39
2022-10-25T10:01:39.007Z,17.42
2022-10-25T10:04:18.260Z,17.49
2022-10-25T10:06:45.040Z,17.56
2022-10-25T10:09:12.179Z,17.59
2022-10-25T10:11:38.948Z,17.66
2022-10-25T10:14:22.352Z,17.72
2022-10-25T10:16:51.104Z,17.75
2022-10-25T10:19:25.628Z,17.80
2022-10-25T10:22:02.275Z,17.87
2022-10-25T10:24:31.404Z,17.92
2022-10-25T10:27:02.646Z,17.94
2022-10-25T10:29:52.915Z,18.00
2022-10-25T10:32:33.470Z,18.05
2022-10-25T10:35:01.506Z,18.10
2022-10-25T10:37:29.299Z,18.11
2022-10-25T10:40:22.812Z,18.19
2022-10-25T10:42:49.870Z,18.23
2022-10-25T10:45:18.953Z,18.27
2022-10-25T10:47:48.765Z,18.31
2022-10-25T10:50:18.562Z,18.34
2022-10-25T10:52:45.881Z,18.38
2022-10-25T10:55:30.608Z,18.39
2022-10-25T10:58:13.872Z,18.44
2022-10-25T11:00:40.764Z,18.48
2022-10-25T11:03:30.212Z,18.54
2022-10-25T11:05:59.403Z,18.58
2022-10-25T11:08:26.548Z,18.60
2022-10-25T11:10:54.496Z,18.64
2022-10-25T11:13:22.880Z,18.66
2022-10-25T11:16:08.461Z,18.67
2022-10-25T11:18:39.888Z,18.74
2022-10-25T11:21:32.715Z,18.77
2022-10-25T11:24:25.124Z,18.80
2022-10-25T11:27:22.712Z,18.83
2022-10-25T11:30:34.859Z,18.89
2022-10-25T11:33:05.975Z,18.93
2022-10-25T11:35:59.275Z,18.97
2022-10-25T11:38:41.176Z,19.03
2022-10-25T11:41:17.278Z,19.07
2022-10-25T11:44:11.817Z,19.09
2022-10-25T11:47:12.246Z,19.13
2022-10-25T11:50:06.285Z,19.16
2022-10-25T11:52:58.567Z,19.23
2022-10-25T11:55:28.333Z,19.24
2022-10-25T11:58:28.789Z,19.28
2022-10-25T12:01:25.340Z,19.29
2022-10-25T12:04:30.670Z,19.34
2022-10-25T12:07:17.071Z,19.40
2022-10-25T12:09:53.138Z,19.43
2022-10-25T12:12:22.913Z,19.45
2022-10-25T12:14:52.599Z,19.47
2022-10-25T12:17:29.745Z,19.57
2022-10-25T12:20:02.092Z,19.58
2022-10-25T12:22:34.673Z,19.62
2022-10-25T12:25:04.032Z,19.62
2022-10-25T12:27:30.854Z,19.63
2022-10-25T12:30:06.318Z,19.65
2022-10-25T12:32:37.377Z,19.71
2022-10-25T12:35:17.900Z,19.70
2022-10-25T12:37:49.074Z,19.72
2022-10-25T12:40:18.220Z,19.78
2022-10-25T12:42:51.976Z,19.79
2022-10-25T12:45:21.916Z,19.83
2022-10-25T12:48:26.555Z,19.85
2022-10-25T12:51:18.998Z,19.90
2022-10-25T12:53:45.862Z,19.92
2022-10-25T12:56:28.342Z,19.96
2022-10-25T12:59:07.061Z,19.98
2022-10-25T13:02:02.473Z,19.99
2022-10-25T13:04:47.558Z,20.01
2022-10-25T13:07:14.592Z,20.02
2022-10-25T13:09:41.397Z,20.02
2022-10-25T13:12:30.680Z,20.05
2022-10-25T13:14:58.474Z,20.06
2022-10-25T13:17:25.481Z,20.06
2022-10-25T13:20:15.527Z,20.11
2022-10-25T13:22:43.303Z,20.13
2022-10-25T13:25:13.100Z,20.14
2022-10-25T13:28:01.011Z,20.15
2022-10-25T13:30:31.969Z,20.14
2022-10-25T13:33:18.950Z,20.13
2022-10-25T13:35:48.708Z,20.14
2022-10-25T13:38:44.888Z,20.14
2022-10-25T13:41:16.030Z,20.13
2022-10-25T13:44:02.686Z,20.15
2022-10-25T13:46:39.785Z,20.18
2022-10-25T13:49:32.129Z,20.17
2022-10-25T13:52:05.376Z,20.18
2022-10-25T13:54:43.536Z,20.18
2022-10-25T13:57:44.347Z,20.18
2022-10-25T14:00:26.704Z,20.20
2022-10-25T14:03:09.046Z,20.22
2022-10-25T14:05:55.677Z,20.22
2022-10-25T14:08:33.280Z,20.23
2022-10-25T14:11:03.952Z,20.23
2022-10-25T14:13:36.599Z,20.25
2022-10-25T14:16:04.311Z,20.25
2022-10-25T14:18:31.111Z,20.24
2022-10-25T14:21:05.355Z,20.26
2022-10-25T14:23:34.639Z,20.26
2022-10-25T14:26:02.575Z,20.25
2022-10-25T14:28:30.808Z,20.27
2022-10-25T14:31:07.593Z,20.26
2022-10-25T14:33:42.229Z,20.23
2022-10-25T14:36:25.189Z,20.23
2022-10-25T14:38:54.038Z,20.22
2022-10-25T14:41:26.106Z,20.20
2022-10-25T14:43:53.053Z,20.20
2022-10-25T14:46:21.885Z,20.17
2022-10-25T14:48:49.632Z,20.17
2022-10-25T14:51:22.155Z,20.14
2022-10-25T14:53:56.877Z,20.13
2022-10-25T14:56:26.942Z,20.12
2022-10-25T14:58:53.810Z,20.12
2022-10-25T15:01:21.834Z,20.07
2022-10-25T15:03:50.968Z,20.07
2022-10-25T15:06:18.819Z,20.04
2022-10-25T15:08:51.454Z,20.05
2022-10-25T15:11:19.414Z,20.01
2022-10-25T15:13:50.072Z,20.00
2022-10-25T15:16:27.752Z,19.98
2022-10-25T15:19:11.740Z,19.97
2022-10-25T15:21:45.868Z,19.96
2022-10-25T15:24:13.855Z,19.95
2022-10-25T15:26:55.109Z,19.92
2022-10-25T15:29:32.132Z,19.90
2022-10-25T15:32:00.507Z,19.87
2022-10-25T15:34:27.436Z,19.85
2022-10-25T15:36:54.563Z,19.82
2022-10-25T15:39:32.556Z,19.76
2022-10-25T15:41:59.673Z,19.74
2022-10-25T15:44:26.448Z,19.70
2022-10-25T15:46:53.431Z,19.66
2022-10-25T15:49:20.250Z,19.62
2022-10-25T15:51:47.355Z,19.55
2022-10-25T15:54:18.764Z,19.52
2022-10-25T15:56:45.828Z,19.49
2022-10-25T15:59:12.745Z,19.47
2022-10-25T16:01:44.835Z,19.44
2022-10-25T16:04:15.761Z,19.39
2022-10-25T16:06:43.320Z,19.37
2022-10-25T16:09:10.703Z,19.34
2022-10-25T16:11:38.902Z,19.30
2022-10-25T16:14:07.811Z,19.26
2022-10-25T16:16:40.265Z,19.23
2022-10-25T16:19:15.132Z,19.20
2022-10-25T16:21:42.364Z,19.15
2022-10-25T16:24:09.407Z,19.13
2022-10-25T16:26:42.996Z,19.08
2022-10-25T16:29:15.643Z,19.04
2022-10-25T16:31:43.132Z,19.00
2022-10-25T16:34:11.173Z,18.97
2022-10-25T16:36:38.303Z,18.94
2022-10-25T16:39:06.354Z,18.89
2022-10-25T16:41:33.466Z,18.87
2022-10-25T16:44:00.288Z,18.82
2022-10-25T16:46:27.334Z,18.79
2022-10-25T16:48:55.950Z,18.75
2022-10-25T16:51:25.850Z,18.69
2022-10-25T16:53:52.636Z,18.66
2022-10-25T16:56:19.616Z,18.60
2022-10-25T16:58:46.390Z,18.56
2022-10-25T17:01:17.520Z,18.53
2022-10-25T17:03:44.595Z,18.51
2022-10-25T17:06:28.761Z,18.47
2022-10-25T17:08:58.352Z,18.44
2022-10-25T17:11:25.366Z,18.41
2022-10-25T17:13:52.144Z,18.36
2022-10-25T17:16:19.199Z,18.34
2022-10-25T17:18:46.002Z,18.31
2022-10-25T17:21:15.106Z,18.27
2022-10-25T17:23:42.028Z,18.22
2022-10-25T17:26:11.465Z,18.23
2022-10-25T17:28:43.033Z,18.24
2022-10-25T17:31:12.532Z,18.21
2022-10-25T17:33:40.390Z,18.18
2022-10-25T17:36:15.115Z,18.10
2022-10-25T17:38:42.113Z,18.08
2022-10-25T17:41:09.623Z,18.04
2022-10-25T17:43:37.223Z,17.99
2022-10-25T17:46:06.820Z,17.98
2022-10-25T17:48:33.726Z,17.93
2022-10-25T17:51:05.201Z,17.91
2022-10-25T17:53:32.069Z,17.89
2022-10-25T17:55:59.339Z,17.85
2022-10-25T17:58:26.139Z,17.83
2022-10-25T18:00:54.570Z,17.81
2022-10-25T18:03:21.516Z,17.77
2022-10-25T18:05:48.539Z,17.64
2022-10-25T18:08:15.736Z,17.75
2022-10-25T18:10:43.041Z,17.80
2022-10-25T18:13:09.849Z,17.76
2022-10-25T18:15:38.310Z,17.67
2022-10-25T18:18:05.137Z,17.61
2022-10-25T18:20:32.366Z,17.54
2022-10-25T18:22:59.108Z,17.45
2022-10-25T18:25:26.164Z,17.40
2022-10-25T18:27:52.937Z,17.38
2022-10-25T18:30:19.986Z,17.35
2022-10-25T18:32:46.749Z,17.34
2022-10-25T18:35:13.861Z,17.30
2022-10-25T18:37:40.594Z,17.27
2022-10-25T18:40:08.420Z,17.24
2022-10-25T18:42:35.857Z,17.32
2022-10-25T18:45:03.157Z,17.42
2022-10-25T18:47:29.997Z,17.42
2022-10-25T18:49:57.013Z,17.38
2022-10-25T18:52:24.683Z,17.32
2022-10-25T18:54:53.451Z,17.25
2022-10-25T18:57:20.275Z,17.24
2022-10-25T18:59:47.660Z,17.27
2022-10-25T19:02:14.440Z,17.27
2022-10-25T19:04:41.745Z,17.23
2022-10-25T19:07:08.499Z,17.25
2022-10-25T19:09:35.579Z,17.23
2022-10-25T19:12:02.377Z,17.19
2022-10-25T19:14:29.380Z,17.18
2022-10-25T19:16:56.154Z,17.16
2022-10-25T19:19:23.194Z,17.15
2022-10-25T19:21:50.085Z,17.12
2022-10-25T19:24:17.353Z,17.09
2022-10-25T19:26:44.884Z,17.08
2022-10-25T19:29:11.943Z,17.11
2022-10-25T19:31:38.685Z,17.08
2022-10-25T19:34:05.706Z,17.08
2022-10-25T19:36:32.797Z,17.06
2022-10-25T19:39:00.203Z,17.05
2022-10-25T19:41:27.027Z,17.06
2022-10-25T19:43:56.397Z,17.08
2022-10-25T19:46:23.345Z,17.06
2022-10-25T19:48:50.358Z,17.03
2022-10-25T19:51:18.961Z,16.99
2022-10-25T19:53:46.117Z,16.94
2022-10-25T19:56:17.834Z,16.95
2022-10-25T19:58:45.046Z,16.96
2022-10-25T20:01:13.815Z,16.95
2022-10-25T20:03:40.961Z,16.93
2022-10-25T20:06:12.612Z,16.86
2022-10-25T20:08:39.960Z,16.86
2022-10-25T20:11:07.228Z,16.85
2022-10-25T20:13:34.340Z,16.84
2022-10-25T20:16:01.196Z,16.78
2022-10-25T20:18:33.199Z,16.79
2022-10-25T20:21:01.665Z,16.77
2022-10-25T20:23:28.964Z,16.76
2022-10-25T20:25:55.766Z,16.72
2022-10-25T20:28:22.814Z,16.69
2022-10-25T20:30:49.965Z,16.66
2022-10-25T20:33:17.315Z,16.66
2022-10-25T20:35:46.946Z,16.65
2022-10-25T20:38:13.981Z,16.62
2022-10-25T20:40:40.815Z,16.61
2022-10-25T20:43:07.917Z,16.59
2022-10-25T20:45:34.705Z,16.60
2022-10-25T20:48:01.783Z,16.55
2022-10-25T20:50:29.316Z,16.55
2022-10-25T20:53:09.751Z,16.56
2022-10-25T20:55:37.236Z,16.53
2022-10-25T20:58:04.678Z,16.51
2022-10-25T21:00:32.472Z,16.49
2022-10-25T21:02:59.830Z,16.47
2022-10-25T21:05:26.717Z,16.49
2022-10-25T21:07:53.694Z,16.47
2022-10-25T21:10:20.462Z,16.42
2022-10-25T21:12:47.484Z,16.45
2022-10-25T21:15:14.349Z,16.43
2022-10-25T21:17:41.376Z,16.44
2022-10-25T21:20:08.689Z,16.42
2022-10-25T21:22:35.684Z,16.42
2022-10-25T21:25:02.463Z,16.35
2022-10-25T21:27:29.624Z,16.39
2022-10-25T21:29:56.400Z,16.39
2022-10-25T21:32:23.412Z,16.39
2022-10-25T21:34:50.165Z,16.36
2022-10-25T21:37:17.257Z,16.37
2022-10-25T21:39:45.835Z,16.33
2022-10-25T21:42:12.845Z,16.31
2022-10-25T21:44:39.673Z,16.33
2022-10-25T21:47:06.660Z,16.32
2022-10-25T21:49:33.455Z,16.29
2022-10-25T21:52:00.512Z,16.27
2022-10-25T21:54:28.116Z,16.24
2022-10-25T21:56:55.099Z,16.25
2022-10-25T21:59:22.289Z,16.23
2022-10-25T22:01:49.368Z,16.22
2022-10-25T22:04:16.327Z,16.21
2022-10-25T22:06:43.324Z,16.19
2022-10-25T22:09:10.076Z,16.17
2022-10-25T22:11:38.122Z,16.16
2022-10-25T22:14:06.362Z,16.12
2022-10-25T22:16:33.666Z,16.09
2022-10-25T22:19:03.106Z,16.06
2022-10-25T22:21:35.517Z,16.05
2022-10-25T22:24:03.056Z,16.00
2022-10-25T22:26:30.060Z,16.00
2022-10-25T22:28:57.896Z,16.01
2022-10-25T22:31:25.667Z,16.01
2022-10-25T22:33:54.731Z,15.95
2022-10-25T22:36:22.316Z,15.95
2022-10-25T22:38:49.064Z,15.89
2022-10-25T22:41:18.176Z,15.87
2022-10-25T22:43:45.167Z,15.88
2022-10-25T22:46:13.712Z,15.84
2022-10-25T22:48:41.308Z,15.76
2022-10-25T22:51:08.431Z,15.77
2022-10-25T22:53:35.879Z,15.75
2022-10-25T22:56:07.647Z,15.78
2022-10-25T22:58:34.871Z,15.75
2022-10-25T23:03:40.622Z,15.69
2022-10-25T23:06:11.691Z,15.67
2022-10-25T23:08:38.503Z,15.59
2022-10-25T23:11:26.659Z,15.64
2022-10-25T23:13:53.455Z,15.62
2022-10-25T23:16:20.799Z,15.57
2022-10-25T23:18:47.655Z,15.55
2022-10-25T23:21:19.708Z,15.53
2022-10-25T23:23:46.737Z,15.55
2022-10-25T23:26:17.240Z,15.46
2022-10-25T23:28:44.110Z,15.51
2022-10-25T23:31:11.775Z,15.52
2022-10-25T23:33:39.047Z,15.48
2022-10-25T23:36:16.120Z,15.47
2022-10-25T23:38:43.534Z,15.43
2022-10-25T23:41:10.759Z,15.43
2022-10-25T23:43:37.635Z,15.41
2022-10-25T23:46:05.142Z,15.37
2022-10-25T23:48:31.975Z,15.37
2022-10-25T23:53:33.806Z,15.36
2022-10-25T23:56:01.254Z,15.32
2022-10-25T23:58:28.046Z,15.32
